createdAt,value
2019-02-17T00:04:24.078Z,101993.34
2019-02-17T00:06:52.624Z,101990.73
2019-02-17T00:09:27.398Z,101996.54
2019-02-17T00:11:58.991Z,102001.27
2019-02-17T00:14:27.595Z,101996.59
2019-02-17T00:16:59.103Z,101996.99
2019-02-17T00:19:27.731Z,101998.81
2019-02-17T00:21:56.334Z,101996.85
2019-02-17T00:24:24.945Z,102000.59
2019-02-17T00:26:55.495Z,102008.00
2019-02-17T00:29:26.825Z,102005.62
2019-02-17T00:31:58.449Z,102009.23
2019-02-17T00:34:29.931Z,102010.37
2019-02-17T00:37:01.681Z,102002.02
2019-02-17T00:39:33.391Z,102000.22
2019-02-17T00:42:04.767Z,102003.39
2019-02-17T00:44:33.491Z,102007.13
2019-02-17T00:47:05.052Z,102004.65
2019-02-17T00:49:33.680Z,102009.95
2019-02-17T00:52:05.160Z,102006.67
2019-02-17T00:54:33.728Z,102011.25
2019-02-17T00:57:04.989Z,102008.16
2019-02-17T00:59:33.671Z,102012.84
2019-02-17T01:02:02.686Z,102020.64
2019-02-17T01:04:31.258Z,102011.67
2019-02-17T01:07:02.774Z,102004.59
2019-02-17T01:09:31.650Z,102005.55
2019-02-17T01:12:02.962Z,102007.80
2019-02-17T01:14:31.568Z,102006.67
2019-02-17T01:17:00.124Z,102006.87
2019-02-17T01:19:31.776Z,101997.78
2019-02-17T01:22:03.559Z,102001.27
2019-02-17T01:24:32.317Z,101992.02
2019-02-17T01:27:03.774Z,101995.90
2019-02-17T01:29:32.584Z,101997.93
2019-02-17T01:32:04.277Z,101999.84
2019-02-17T01:34:32.866Z,101995.34
2019-02-17T01:37:04.288Z,101998.23
2019-02-17T01:39:36.045Z,101994.25
2019-02-17T01:42:07.735Z,102000.17
2019-02-17T01:44:39.195Z,102000.16
2019-02-17T01:47:10.706Z,102001.03
2019-02-17T01:49:39.303Z,101997.95
2019-02-17T01:52:10.985Z,101997.84
2019-02-17T01:54:39.596Z,101992.73
2019-02-17T01:57:08.547Z,101995.56
2019-02-17T01:59:40.290Z,101998.77
2019-02-17T02:02:08.907Z,101994.52
2019-02-17T02:04:37.483Z,101993.13
2019-02-17T02:07:06.126Z,101992.87
2019-02-17T02:09:38.112Z,102003.43
2019-02-17T02:12:09.704Z,102000.38
2019-02-17T02:14:38.315Z,101999.78
2019-02-17T02:17:09.604Z,101997.63
2019-02-17T02:19:41.187Z,101994.80
2019-02-17T02:22:12.574Z,101999.55
2019-02-17T02:24:44.152Z,101987.33
2019-02-17T02:27:15.524Z,101986.05
2019-02-17T02:29:44.133Z,101987.33
2019-02-17T02:32:15.715Z,101987.76
2019-02-17T02:34:44.640Z,101988.12
2019-02-17T02:37:13.249Z,101987.69
2019-02-17T02:39:44.726Z,101989.78
2019-02-17T02:42:16.323Z,101987.63
2019-02-17T02:44:44.926Z,101984.71
2019-02-17T02:47:13.534Z,101988.55
2019-02-17T02:49:47.573Z,101981.78
2019-02-17T02:52:18.944Z,101979.37
2019-02-17T02:54:50.521Z,101982.37
2019-02-17T02:57:22.208Z,101979.06
2019-02-17T02:59:52.630Z,101984.58
2019-02-17T03:02:25.694Z,101989.77
2019-02-17T03:04:55.584Z,101995.83
2019-02-17T03:07:27.017Z,101996.47
2019-02-17T03:09:58.390Z,101994.28
2019-02-17T03:12:30.079Z,101995.17
2019-02-17T03:14:58.698Z,101989.95
2019-02-17T03:17:30.383Z,102001.06
2019-02-17T03:19:58.936Z,101996.55
2019-02-17T03:22:30.873Z,101996.81
2019-02-17T03:24:59.741Z,101999.25
2019-02-17T03:27:31.269Z,102007.32
2019-02-17T03:30:04.742Z,102002.20
2019-02-17T03:32:33.406Z,102012.11
2019-02-17T03:35:02.015Z,102021.52
2019-02-17T03:37:30.589Z,102009.34
2019-02-17T03:40:01.912Z,102016.67
2019-02-17T03:42:33.383Z,102012.83
2019-02-17T03:45:07.267Z,102009.28
2019-02-17T03:47:38.597Z,102013.55
2019-02-17T03:50:08.392Z,102012.86
2019-02-17T03:52:39.908Z,102017.77
2019-02-17T03:55:08.616Z,102017.81
2019-02-17T03:57:40.006Z,102022.84
2019-02-17T04:00:16.866Z,102022.84
2019-02-17T04:02:41.933Z,102019.98
2019-02-17T04:05:13.310Z,102022.12
2019-02-17T04:07:41.915Z,102019.13
2019-02-17T04:10:13.293Z,102019.64
2019-02-17T04:12:42.107Z,102015.96
2019-02-17T04:15:13.390Z,102016.32
2019-02-17T04:17:44.690Z,102015.34
2019-02-17T04:20:16.435Z,102013.66
2019-02-17T04:22:47.708Z,102009.47
2019-02-17T04:25:16.315Z,102009.14
2019-02-17T04:27:47.894Z,102007.86
2019-02-17T04:30:28.638Z,102018.58
2019-02-17T04:32:54.199Z,102024.28
2019-02-17T04:35:22.759Z,102021.84
2019-02-17T04:37:51.386Z,102018.62
2019-02-17T04:40:19.987Z,102021.33
2019-02-17T04:42:48.570Z,102015.79
2019-02-17T04:45:20.043Z,102018.39
2019-02-17T04:47:51.574Z,102022.47
2019-02-17T04:50:26.481Z,102017.36
2019-02-17T04:52:57.760Z,102013.52
2019-02-17T04:55:26.407Z,102014.89
2019-02-17T04:57:57.691Z,102010.95
2019-02-17T05:00:39.199Z,102017.14
2019-02-17T05:03:02.079Z,102022.50
2019-02-17T05:05:30.675Z,102022.14
2019-02-17T05:08:02.257Z,102014.23
2019-02-17T05:10:33.629Z,102020.63
2019-02-17T05:13:05.108Z,102011.03
2019-02-17T05:15:36.684Z,102010.31
2019-02-17T05:18:08.263Z,102019.78
2019-02-17T05:20:37.284Z,102015.20
2019-02-17T05:23:08.859Z,102013.75
2019-02-17T05:25:37.589Z,102016.51
2019-02-17T05:28:08.965Z,102024.06
2019-02-17T05:30:37.912Z,102022.16
2019-02-17T05:33:09.420Z,102022.59
2019-02-17T05:35:37.995Z,102025.91
2019-02-17T05:38:09.569Z,102023.09
2019-02-17T05:40:41.013Z,102023.39
2019-02-17T05:43:09.625Z,102021.73
2019-02-17T05:45:41.218Z,102027.67
2019-02-17T05:48:12.601Z,102025.95
2019-02-17T05:50:41.200Z,102022.98
2019-02-17T05:53:12.617Z,102025.84
2019-02-17T05:55:44.116Z,102025.75
2019-02-17T05:58:15.681Z,102035.08
2019-02-17T06:00:47.824Z,102038.00
2019-02-17T06:03:19.382Z,102041.98
2019-02-17T06:05:48.025Z,102039.01
2019-02-17T06:08:19.807Z,102036.87
2019-02-17T06:10:48.372Z,102042.58
2019-02-17T06:13:20.100Z,102037.76
2019-02-17T06:15:48.668Z,102036.89
2019-02-17T06:18:20.392Z,102047.21
2019-02-17T06:20:53.827Z,102038.83
2019-02-17T06:23:25.611Z,102042.96
2019-02-17T06:25:55.882Z,102039.45
2019-02-17T06:28:30.623Z,102053.92
2019-02-17T06:31:02.135Z,102046.50
2019-02-17T06:33:33.644Z,102054.14
2019-02-17T06:36:02.297Z,102059.36
2019-02-17T06:38:33.872Z,102054.88
2019-02-17T06:41:05.856Z,102066.30
2019-02-17T06:43:37.396Z,102054.79
2019-02-17T06:46:10.344Z,102056.99
2019-02-17T06:48:39.060Z,102052.92
2019-02-17T06:51:07.650Z,102061.19
2019-02-17T06:53:39.229Z,102062.31
2019-02-17T06:56:24.350Z,102064.55
2019-02-17T06:58:55.642Z,102061.72
2019-02-17T07:01:27.377Z,102061.95
2019-02-17T07:03:56.414Z,102051.13
2019-02-17T07:06:26.624Z,102058.86
2019-02-17T07:08:55.186Z,102062.55
2019-02-17T07:11:23.919Z,102056.77
2019-02-17T07:13:55.412Z,102055.17
2019-02-17T07:16:25.572Z,102065.08
2019-02-17T07:18:56.880Z,102063.12
2019-02-17T07:21:25.885Z,102067.67
2019-02-17T07:23:57.395Z,102063.23
2019-02-17T07:26:26.080Z,102063.12
2019-02-17T07:28:54.653Z,102074.63
2019-02-17T07:31:34.398Z,102077.58
2019-02-17T07:33:55.267Z,102077.16
2019-02-17T07:36:26.877Z,102076.19
2019-02-17T07:38:55.527Z,102082.45
2019-02-17T07:41:26.110Z,102074.74
2019-02-17T07:43:57.670Z,102071.87
2019-02-17T07:46:26.328Z,102067.32
2019-02-17T07:48:57.996Z,102070.52
2019-02-17T07:51:26.982Z,102065.27
2019-02-17T07:53:58.258Z,102073.66
2019-02-17T07:56:29.996Z,102069.38
2019-02-17T07:58:58.570Z,102075.06
2019-02-17T08:01:27.222Z,102077.44
2019-02-17T08:03:58.946Z,102069.83
2019-02-17T08:06:28.723Z,102069.60
2019-02-17T08:09:00.271Z,102069.10
2019-02-17T08:11:28.860Z,102070.72
2019-02-17T08:13:57.409Z,102070.59
2019-02-17T08:16:29.066Z,102073.70
2019-02-17T08:18:57.687Z,102073.87
2019-02-17T08:21:26.266Z,102072.77
2019-02-17T08:23:58.001Z,102074.56
2019-02-17T08:26:26.636Z,102071.67
2019-02-17T08:28:58.215Z,102073.53
2019-02-17T08:31:27.077Z,102070.31
2019-02-17T08:33:58.629Z,102071.66
2019-02-17T08:36:27.215Z,102074.27
2019-02-17T08:38:55.805Z,102077.27
2019-02-17T08:41:30.184Z,102078.33
2019-02-17T08:44:01.674Z,102078.43
2019-02-17T08:46:30.267Z,102078.95
2019-02-17T08:49:01.799Z,102078.65
2019-02-17T08:51:33.153Z,102084.75
2019-02-17T08:54:02.035Z,102086.54
2019-02-17T08:56:30.618Z,102093.88
2019-02-17T08:58:59.496Z,102080.61
2019-02-17T09:01:28.072Z,102090.16
2019-02-17T09:03:56.626Z,102091.92
2019-02-17T09:06:28.139Z,102088.52
2019-02-17T09:08:57.424Z,102074.75
2019-02-17T09:11:26.349Z,102063.59
2019-02-17T09:13:57.930Z,102078.27
2019-02-17T09:16:26.511Z,102080.85
2019-02-17T09:18:58.064Z,102080.85
2019-02-17T09:21:29.560Z,102076.11
2019-02-17T09:23:58.132Z,102070.52
2019-02-17T09:26:29.863Z,102064.03
2019-02-17T09:29:01.148Z,102061.41
2019-02-17T09:31:29.727Z,102061.02
2019-02-17T09:34:01.385Z,102061.84
2019-02-17T09:36:29.979Z,102061.84
2019-02-17T09:39:01.557Z,102051.85
2019-02-17T09:41:33.218Z,102051.85
2019-02-17T09:44:05.232Z,102040.95
2019-02-17T09:46:36.892Z,102043.47
2019-02-17T09:49:08.721Z,102045.98
2019-02-17T09:51:37.733Z,102046.77
2019-02-17T09:54:06.292Z,102045.40
2019-02-17T09:56:37.557Z,102046.55
2019-02-17T09:59:08.792Z,102048.18
2019-02-17T10:01:42.633Z,102048.06
2019-02-17T10:04:10.986Z,102048.02
2019-02-17T10:06:39.654Z,102045.36
2019-02-17T10:09:08.638Z,102044.83
2019-02-17T10:11:37.223Z,102036.56
2019-02-17T10:14:05.779Z,102040.04
2019-02-17T10:16:34.348Z,102037.46
2019-02-17T10:19:02.993Z,102033.63
2019-02-17T10:21:31.620Z,102029.59
2019-02-17T10:24:03.306Z,102030.25
2019-02-17T10:26:31.921Z,102027.13
2019-02-17T10:29:00.473Z,102026.69
2019-02-17T10:31:31.745Z,102027.48
2019-02-17T10:34:02.991Z,102026.66
2019-02-17T10:36:34.279Z,102020.47
2019-02-17T10:39:07.174Z,102015.52
2019-02-17T10:41:38.688Z,102016.28
2019-02-17T10:44:08.878Z,102016.16
2019-02-17T10:46:40.415Z,102018.25
2019-02-17T10:49:11.999Z,102024.03
2019-02-17T10:51:43.340Z,102014.31
2019-02-17T10:54:15.586Z,102012.91
2019-02-17T10:56:44.142Z,102012.50
2019-02-17T10:59:15.394Z,102004.09
2019-02-17T11:01:47.116Z,102004.30
2019-02-17T11:04:18.622Z,102000.19
2019-02-17T11:06:48.228Z,101994.27
2019-02-17T11:09:20.304Z,101997.19
2019-02-17T11:11:48.937Z,101988.52
2019-02-17T11:14:20.459Z,101989.56
2019-02-17T11:16:49.360Z,101978.95
2019-02-17T11:19:17.944Z,101976.36
2019-02-17T11:21:46.572Z,101967.91
2019-02-17T11:24:18.867Z,101966.55
2019-02-17T11:26:50.506Z,101961.74
2019-02-17T11:29:19.105Z,101958.12
2019-02-17T11:31:50.422Z,101948.56
2019-02-17T11:34:23.200Z,101950.84
2019-02-17T11:36:53.696Z,101953.09
2019-02-17T11:39:23.331Z,101945.32
2019-02-17T11:41:54.783Z,101939.28
2019-02-17T11:44:24.884Z,101936.00
2019-02-17T11:46:56.286Z,101946.14
2019-02-17T11:49:28.051Z,101940.91
2019-02-17T11:51:56.606Z,101941.20
2019-02-17T11:54:28.116Z,101942.91
2019-02-17T11:56:56.675Z,101943.85
2019-02-17T11:59:28.212Z,101941.45
2019-02-17T12:01:59.838Z,101939.52
2019-02-17T12:04:31.632Z,101931.06
2019-02-17T12:07:02.865Z,101929.52
2019-02-17T12:09:31.910Z,101931.13
2019-02-17T12:12:00.473Z,101922.73
2019-02-17T12:14:31.669Z,101921.42
2019-02-17T12:17:03.228Z,101922.84
2019-02-17T12:19:34.875Z,101916.72
2019-02-17T12:22:07.785Z,101914.30
2019-02-17T12:24:40.656Z,101912.72
2019-02-17T12:27:15.029Z,101913.86
2019-02-17T12:29:45.255Z,101902.44
2019-02-17T12:32:13.838Z,101899.16
2019-02-17T12:34:45.918Z,101895.84
2019-02-17T12:37:17.143Z,101896.38
2019-02-17T12:39:48.463Z,101889.80
2019-02-17T12:42:17.028Z,101885.01
2019-02-17T12:44:48.610Z,101883.99
2019-02-17T12:47:17.184Z,101879.56
2019-02-17T12:49:48.881Z,101883.11
2019-02-17T12:52:17.430Z,101881.44
2019-02-17T12:54:46.069Z,101880.90
2019-02-17T12:57:17.579Z,101880.75
2019-02-17T12:59:46.477Z,101871.96
2019-02-17T13:02:17.716Z,101871.77
2019-02-17T13:04:49.009Z,101873.12
2019-02-17T13:07:20.717Z,101874.34
2019-02-17T13:09:53.179Z,101869.62
2019-02-17T13:12:24.763Z,101862.34
2019-02-17T13:14:56.210Z,101865.95
2019-02-17T13:17:24.777Z,101865.50
2019-02-17T13:19:54.955Z,101863.22
2019-02-17T13:22:26.332Z,101861.27
2019-02-17T13:24:57.622Z,101867.14
2019-02-17T13:27:29.583Z,101862.19
2019-02-17T13:30:00.997Z,101860.56
2019-02-17T13:32:29.549Z,101861.65
2019-02-17T13:35:01.954Z,101858.19
2019-02-17T13:37:33.216Z,101861.95
2019-02-17T13:40:06.664Z,101861.25
2019-02-17T13:42:37.947Z,101860.95
2019-02-17T13:45:12.170Z,101857.63
2019-02-17T13:47:40.731Z,101864.41
2019-02-17T13:50:17.304Z,101860.72
2019-02-17T13:52:46.077Z,101856.17
2019-02-17T13:55:14.945Z,101851.16
2019-02-17T13:57:43.509Z,101851.95
2019-02-17T14:00:17.756Z,101846.46
2019-02-17T14:02:47.009Z,101847.70
2019-02-17T14:05:18.407Z,101848.39
2019-02-17T14:07:46.960Z,101842.27
2019-02-17T14:10:15.606Z,101839.98
2019-02-17T14:12:44.171Z,101841.58
2019-02-17T14:15:18.184Z,101834.45
2019-02-17T14:17:46.997Z,101838.44
2019-02-17T14:20:18.560Z,101839.68
2019-02-17T14:22:50.014Z,101837.69
2019-02-17T14:25:18.596Z,101835.83
2019-02-17T14:27:47.155Z,101836.58
2019-02-17T14:30:19.766Z,101828.97
2019-02-17T14:32:52.736Z,101825.63
2019-02-17T14:35:21.362Z,101826.25
2019-02-17T14:37:52.933Z,101823.86
2019-02-17T14:40:23.419Z,101824.34
2019-02-17T14:42:55.458Z,101820.91
2019-02-17T14:45:25.667Z,101815.77
2019-02-17T14:47:57.012Z,101819.00
2019-02-17T14:50:28.593Z,101823.34
2019-02-17T14:52:57.152Z,101815.05
2019-02-17T14:55:25.741Z,101805.77
2019-02-17T14:58:04.944Z,101798.98
2019-02-17T15:00:27.692Z,101799.44
2019-02-17T15:02:59.215Z,101797.16
2019-02-17T15:05:27.876Z,101796.93
2019-02-17T15:07:56.627Z,101798.19
2019-02-17T15:10:25.552Z,101786.78
2019-02-17T15:12:57.047Z,101785.29
2019-02-17T15:15:25.605Z,101783.39
2019-02-17T15:17:57.160Z,101784.12
2019-02-17T15:20:25.886Z,101782.36
2019-02-17T15:22:54.584Z,101787.77
2019-02-17T15:25:23.301Z,101783.53
2019-02-17T15:27:54.962Z,101779.07
2019-02-17T15:30:26.698Z,101775.91
2019-02-17T15:33:03.901Z,101769.32
2019-02-17T15:35:28.453Z,101772.66
2019-02-17T15:37:59.723Z,101775.38
2019-02-17T15:40:28.287Z,101768.94
2019-02-17T15:42:56.946Z,101769.08
2019-02-17T15:45:25.571Z,101767.20
2019-02-17T15:47:54.602Z,101766.11
2019-02-17T15:50:23.481Z,101758.13
2019-02-17T15:52:52.675Z,101750.59
2019-02-17T15:55:21.634Z,101747.00
2019-02-17T15:57:53.729Z,101745.52
2019-02-17T16:00:23.967Z,101745.36
2019-02-17T16:02:55.327Z,101745.25
2019-02-17T16:05:24.283Z,101749.23
2019-02-17T16:07:55.880Z,101748.44
2019-02-17T16:10:24.904Z,101750.82
2019-02-17T16:12:56.208Z,101748.05
2019-02-17T16:15:28.487Z,101745.72
2019-02-17T16:17:58.711Z,101744.28
2019-02-17T16:20:27.278Z,101744.33
2019-02-17T16:22:58.531Z,101747.12
2019-02-17T16:25:27.099Z,101738.20
2019-02-17T16:27:58.611Z,101743.19
2019-02-17T16:30:27.342Z,101750.69
2019-02-17T16:32:55.933Z,101745.72
2019-02-17T16:35:24.585Z,101747.61
2019-02-17T16:37:53.208Z,101743.48
2019-02-17T16:40:24.715Z,101742.80
2019-02-17T16:42:55.826Z,101751.14
2019-02-17T16:45:24.987Z,101748.65
2019-02-17T16:47:54.700Z,101740.91
2019-02-17T16:50:31.534Z,101747.45
2019-02-17T16:53:02.939Z,101744.47
2019-02-17T16:55:31.497Z,101748.39
2019-02-17T16:58:00.084Z,101748.86
2019-02-17T17:00:31.287Z,101755.84
2019-02-17T17:03:02.573Z,101757.25
2019-02-17T17:05:34.765Z,101754.80
2019-02-17T17:08:03.400Z,101755.34
2019-02-17T17:10:33.000Z,101749.39
2019-02-17T17:13:01.563Z,101755.50
2019-02-17T17:15:30.127Z,101758.59
2019-02-17T17:17:58.704Z,101752.55
2019-02-17T17:20:30.297Z,101753.89
2019-02-17T17:23:02.173Z,101750.01
2019-02-17T17:25:30.801Z,101753.42
2019-02-17T17:27:59.391Z,101745.63
2019-02-17T17:30:27.957Z,101752.64
2019-02-17T17:32:59.513Z,101747.12
2019-02-17T17:35:28.480Z,101748.48
2019-02-17T17:37:57.071Z,101747.75
2019-02-17T17:40:25.635Z,101749.15
2019-02-17T17:42:56.895Z,101744.91
2019-02-17T17:45:25.464Z,101752.27
2019-02-17T17:47:56.979Z,101750.22
2019-02-17T17:50:25.538Z,101755.86
2019-02-17T17:52:57.603Z,101751.55
2019-02-17T17:55:28.371Z,101751.13
2019-02-17T17:57:59.385Z,101752.84
2019-02-17T18:00:29.646Z,101746.48
2019-02-17T18:03:01.245Z,101743.95
2019-02-17T18:05:29.881Z,101743.95
2019-02-17T18:08:01.378Z,101745.73
2019-02-17T18:10:30.270Z,101743.19
2019-02-17T18:12:58.844Z,101743.23
2019-02-17T18:15:27.788Z,101745.86
2019-02-17T18:17:56.353Z,101749.34
2019-02-17T18:20:27.625Z,101741.59
2019-02-17T18:22:59.234Z,101743.34
2019-02-17T18:25:28.343Z,101739.47
2019-02-17T18:27:56.908Z,101733.05
2019-02-17T18:30:25.493Z,101738.25
2019-02-17T18:32:58.438Z,101738.77
2019-02-17T18:35:27.009Z,101739.23
2019-02-17T18:37:55.946Z,101729.77
2019-02-17T18:40:24.567Z,101729.77
2019-02-17T18:42:56.308Z,101736.64
2019-02-17T18:45:24.968Z,101742.24
2019-02-17T18:47:56.541Z,101742.24
2019-02-17T18:50:28.518Z,101745.27
2019-02-17T18:52:59.764Z,101740.98
2019-02-17T18:55:28.353Z,101746.56
2019-02-17T18:57:59.585Z,101747.86
2019-02-17T19:00:28.549Z,101745.25
2019-02-17T19:02:57.124Z,101741.81
2019-02-17T19:05:31.920Z,101734.94
2019-02-17T19:07:59.041Z,101741.84
2019-02-17T19:10:28.532Z,101721.22
2019-02-17T19:13:00.038Z,101721.22
2019-02-17T19:15:28.627Z,101734.97
2019-02-17T19:17:57.274Z,101730.23
2019-02-17T19:20:28.841Z,101730.23
2019-02-17T19:23:00.744Z,101730.67
2019-02-17T19:25:29.769Z,101729.36
2019-02-17T19:28:03.719Z,101723.36
2019-02-17T19:30:32.497Z,101730.64
2019-02-17T19:33:04.533Z,101730.64
2019-02-17T19:35:41.485Z,101730.65
2019-02-17T19:38:09.297Z,101717.35
2019-02-17T19:40:42.372Z,101728.08
2019-02-17T19:43:13.641Z,101728.08
2019-02-17T19:45:45.453Z,101725.08
2019-02-17T19:48:16.676Z,101725.08
2019-02-17T19:50:48.047Z,101727.24
2019-02-17T19:53:19.612Z,101727.24
2019-02-17T19:55:53.194Z,101728.09
2019-02-17T19:58:27.438Z,101725.94
2019-02-17T20:00:56.181Z,101725.50
2019-02-17T20:03:47.554Z,101724.23
2019-02-17T20:06:20.650Z,101732.39
2019-02-17T20:08:54.748Z,101732.39
2019-02-17T20:11:24.846Z,101728.95
2019-02-17T20:13:56.127Z,101730.25
2019-02-17T20:16:27.962Z,101728.50
2019-02-17T20:18:56.523Z,101727.64
2019-02-17T20:21:27.776Z,101731.09
2019-02-17T20:23:56.340Z,101731.09
2019-02-17T20:26:25.386Z,101726.81
2019-02-17T20:28:57.278Z,101724.66
2019-02-17T20:31:30.285Z,101724.66
2019-02-17T20:33:58.845Z,101716.08
2019-02-17T20:36:30.656Z,101718.20
2019-02-17T20:39:01.927Z,101717.77
2019-02-17T20:41:33.846Z,101716.48
2019-02-17T20:44:02.407Z,101720.33
2019-02-17T20:46:33.960Z,101718.19
2019-02-17T20:49:02.523Z,101716.45
2019-02-17T20:51:31.110Z,101712.16
2019-02-17T20:53:59.953Z,101702.70
2019-02-17T20:56:31.699Z,101703.53
2019-02-17T20:59:00.258Z,101706.94
2019-02-17T21:01:31.820Z,101707.36
2019-02-17T21:04:03.377Z,101706.05
2019-02-17T21:06:32.302Z,101706.03
2019-02-17T21:09:04.594Z,101699.16
2019-02-17T21:11:33.259Z,101699.58
2019-02-17T21:14:04.599Z,101699.59
2019-02-17T21:16:36.319Z,101695.28
2019-02-17T21:19:07.812Z,101699.58
2019-02-17T21:21:39.142Z,101699.98
2019-02-17T21:24:10.517Z,101698.70
2019-02-17T21:26:41.802Z,101705.11
2019-02-17T21:29:13.072Z,101703.83
2019-02-17T21:31:41.711Z,101702.97
2019-02-17T21:34:13.919Z,101705.95
2019-02-17T21:36:43.754Z,101710.25
2019-02-17T21:39:12.555Z,101702.55
2019-02-17T21:41:41.536Z,101708.12
2019-02-17T21:44:10.090Z,101700.38
2019-02-17T21:46:41.402Z,101700.78
2019-02-17T21:49:10.371Z,101701.23
2019-02-17T21:51:41.972Z,101701.23
2019-02-17T21:54:14.058Z,101700.77
2019-02-17T21:56:45.410Z,101706.77
2019-02-17T21:59:13.985Z,101702.41
2019-02-17T22:01:45.292Z,101713.03
2019-02-17T22:04:17.589Z,101710.80
2019-02-17T22:06:49.068Z,101714.10
2019-02-17T22:09:20.973Z,101707.11
2019-02-17T22:11:49.607Z,101710.81
2019-02-17T22:14:23.075Z,101702.28
2019-02-17T22:16:54.086Z,101698.82
2019-02-17T22:19:25.346Z,101690.30
2019-02-17T22:21:57.186Z,101698.42
2019-02-17T22:24:25.814Z,101693.22
2019-02-17T22:27:00.193Z,101692.44
2019-02-17T22:29:31.570Z,101695.86
2019-02-17T22:32:02.873Z,101695.04
2019-02-17T22:34:31.498Z,101699.72
2019-02-17T22:37:02.825Z,101693.83
2019-02-17T22:39:31.842Z,101699.96
2019-02-17T22:42:03.230Z,101677.02
2019-02-17T22:44:31.853Z,101683.03
2019-02-17T22:47:03.503Z,101680.91
2019-02-17T22:49:34.943Z,101680.50
2019-02-17T22:52:06.424Z,101676.23
2019-02-17T22:54:39.464Z,101680.13
2019-02-17T22:57:10.088Z,101675.45
2019-02-17T22:59:42.160Z,101683.55
2019-02-17T23:02:14.071Z,101676.23
2019-02-17T23:04:42.704Z,101679.72
2019-02-17T23:07:11.259Z,101676.63
2019-02-17T23:09:39.955Z,101674.83
2019-02-17T23:12:09.086Z,101673.46
2019-02-17T23:14:37.710Z,101675.97
2019-02-17T23:17:09.802Z,101672.61
2019-02-17T23:19:41.417Z,101665.30
2019-02-17T23:22:12.787Z,101661.87
2019-02-17T23:24:41.511Z,101667.47
2019-02-17T23:27:13.082Z,101668.30
2019-02-17T23:29:44.463Z,101674.26
2019-02-17T23:32:13.078Z,101674.63
2019-02-17T23:34:44.691Z,101674.63
2019-02-17T23:37:16.200Z,101670.41
2019-02-17T23:39:44.869Z,101671.59
2019-02-17T23:42:13.570Z,101671.53
2019-02-17T23:44:42.615Z,101670.20
2019-02-17T23:47:13.991Z,101668.92
2019-02-17T23:49:43.849Z,101666.75
2019-02-17T23:52:15.396Z,101667.73
2019-02-17T23:54:46.858Z,101666.42
2019-02-17T23:57:18.555Z,101665.56
2019-02-17T23:59:50.037Z,101662.17
